Terminal Aerodrome Forecast
Issued by NWS

Home | Current Version | Previous Version | Text Only | Print | Product List | Glossary On
Versions: 1 2 3 4 5 6 7 8 9 10 11 12 13 14 15 16 17 18 19 20 21
000
FTUS43 KDLH 230800 AAA
TAFHYR
TAF AMD
KHYR 230809Z 2308/2406 17007KT 6SM -RA SCT015 OVC030
      TEMPO 2308/2312 5SM RA OVC012
     FM231200 20005KT 4SM BR SCT004 OVC012
     FM231800 22006KT P6SM SCT020
     FM240000 19003KT P6SM SCT015=

USA.gov is the U.S. government's official web portal to all federal, state and local government web resources and services.